Sharon Springs, Kansas
Current Conditions -  °F | °C
As of 10:53 AM on Saturday 25 Oct 2014 (Local Time) from KGLD Reporting Station
Clear Clear  
Wind Chill: 71°   Ceiling: Unl
Heat Index: 71°   Visibility: 10mi
Dew Point: 33°   Wind: 6mph
Humidity: 25%   Direction: 350°N
Pressure: 30.15"   Gusts: NA
Location:  38.9°N, 101.75°W
Report Text: KGLD 251653Z AUTO 35005KT 10SM CLR 22/01 A3015 RMK AO2 SLP184 T02170006
Loading
Personal Weather Stations






























Interactive Weather Map
Tropical Storm Tracking
New forecast layout! Learn more

10-Day Weather Forecast

Advertisements
Track Severe Weather on mobile